sensor_id;sensor_type;location;lat;lon;timestamp;temperature;humidity
49777;DHT22;35673;51.482;7.436;2022-12-07T00:00:02;5.30;99.90
49777;DHT22;35673;51.482;7.436;2022-12-07T00:02:28;5.30;99.90
49777;DHT22;35673;51.482;7.436;2022-12-07T00:04:53;5.40;99.90
49777;DHT22;35673;51.482;7.436;2022-12-07T00:07:19;5.40;99.90
49777;DHT22;35673;51.482;7.436;2022-12-07T00:09:44;5.40;99.90
49777;DHT22;35673;51.482;7.436;2022-12-07T00:12:10;5.40;99.90
49777;DHT22;35673;51.482;7.436;2022-12-07T00:14:35;5.40;99.90
49777;DHT22;35673;51.482;7.436;2022-12-07T00:17:01;5.40;99.90
49777;DHT22;35673;51.482;7.436;2022-12-07T00:19:26;5.40;99.90
49777;DHT22;35673;51.482;7.436;2022-12-07T00:21:52;5.40;99.90
49777;DHT22;35673;51.482;7.436;2022-12-07T00:24:17;5.40;99.90
49777;DHT22;35673;51.482;7.436;2022-12-07T00:26:43;5.40;99.90
49777;DHT22;35673;51.482;7.436;2022-12-07T00:29:14;5.40;99.90
49777;DHT22;35673;51.482;7.436;2022-12-07T00:31:40;5.40;99.90
49777;DHT22;35673;51.482;7.436;2022-12-07T00:34:06;5.50;99.90
49777;DHT22;35673;51.482;7.436;2022-12-07T00:36:32;5.50;99.90
49777;DHT22;35673;51.482;7.436;2022-12-07T00:38:58;5.40;99.90
49777;DHT22;35673;51.482;7.436;2022-12-07T00:41:24;5.40;99.90
49777;DHT22;35673;51.482;7.436;2022-12-07T00:43:51;5.50;99.90
49777;DHT22;35673;51.482;7.436;2022-12-07T00:46:17;5.50;99.90
49777;DHT22;35673;51.482;7.436;2022-12-07T00:48:43;5.50;99.90
49777;DHT22;35673;51.482;7.436;2022-12-07T00:51:09;5.50;99.90
49777;DHT22;35673;51.482;7.436;2022-12-07T00:53:36;5.50;99.90
49777;DHT22;35673;51.482;7.436;2022-12-07T00:56:05;5.50;99.90
49777;DHT22;35673;51.482;7.436;2022-12-07T00:58:31;5.50;99.90
49777;DHT22;35673;51.482;7.436;2022-12-07T01:00:59;5.50;99.90
49777;DHT22;35673;51.482;7.436;2022-12-07T01:03:25;5.50;99.90
49777;DHT22;35673;51.482;7.436;2022-12-07T01:05:51;5.50;99.90
49777;DHT22;35673;51.482;7.436;2022-12-07T01:08:17;5.50;99.90
49777;DHT22;35673;51.482;7.436;2022-12-07T01:10:42;5.50;99.90
49777;DHT22;35673;51.482;7.436;2022-12-07T01:13:08;5.50;99.90
49777;DHT22;35673;51.482;7.436;2022-12-07T01:15:33;5.50;99.90
49777;DHT22;35673;51.482;7.436;2022-12-07T01:17:59;5.50;99.90
49777;DHT22;35673;51.482;7.436;2022-12-07T01:20:24;5.50;99.90
49777;DHT22;35673;51.482;7.436;2022-12-07T01:22:50;5.50;99.90
49777;DHT22;35673;51.482;7.436;2022-12-07T01:25:15;5.50;99.90
49777;DHT22;35673;51.482;7.436;2022-12-07T01:27:41;5.50;99.90
49777;DHT22;35673;51.482;7.436;2022-12-07T01:30:07;5.50;99.90
49777;DHT22;35673;51.482;7.436;2022-12-07T01:32:33;5.50;99.90
49777;DHT22;35673;51.482;7.436;2022-12-07T01:34:59;5.50;99.90
49777;DHT22;35673;51.482;7.436;2022-12-07T01:37:24;5.50;99.90
49777;DHT22;35673;51.482;7.436;2022-12-07T01:39:50;5.50;99.90
49777;DHT22;35673;51.482;7.436;2022-12-07T01:42:16;5.50;99.90
49777;DHT22;35673;51.482;7.436;2022-12-07T01:47:26;5.50;99.90
49777;DHT22;35673;51.482;7.436;2022-12-07T01:49:52;5.50;99.90
49777;DHT22;35673;51.482;7.436;2022-12-07T01:52:28;5.50;99.90
49777;DHT22;35673;51.482;7.436;2022-12-07T01:54:56;5.50;99.90
49777;DHT22;35673;51.482;7.436;2022-12-07T01:57:23;5.50;99.90
49777;DHT22;35673;51.482;7.436;2022-12-07T01:59:49;5.50;99.90
49777;DHT22;35673;51.482;7.436;2022-12-07T02:02:26;5.50;99.90
49777;DHT22;35673;51.482;7.436;2022-12-07T02:04:53;5.50;99.90
49777;DHT22;35673;51.482;7.436;2022-12-07T02:07:19;5.50;99.90
49777;DHT22;35673;51.482;7.436;2022-12-07T02:09:45;5.50;99.90
49777;DHT22;35673;51.482;7.436;2022-12-07T02:12:11;5.50;99.90
49777;DHT22;35673;51.482;7.436;2022-12-07T02:14:36;5.50;99.90
49777;DHT22;35673;51.482;7.436;2022-12-07T02:29:51;5.50;99.90
49777;DHT22;35673;51.482;7.436;2022-12-07T02:35:02;5.50;99.90
49777;DHT22;35673;51.482;7.436;2022-12-07T02:40:25;5.50;99.90
49777;DHT22;35673;51.482;7.436;2022-12-07T02:42:58;5.50;99.90
49777;DHT22;35673;51.482;7.436;2022-12-07T02:45:25;5.50;99.90
49777;DHT22;35673;51.482;7.436;2022-12-07T02:47:53;5.40;99.90
49777;DHT22;35673;51.482;7.436;2022-12-07T02:50:20;5.40;99.90
49777;DHT22;35673;51.482;7.436;2022-12-07T02:52:46;5.40;99.90
49777;DHT22;35673;51.482;7.436;2022-12-07T02:55:12;5.40;99.90
49777;DHT22;35673;51.482;7.436;2022-12-07T03:00:11;5.40;99.90
49777;DHT22;35673;51.482;7.436;2022-12-07T03:08:39;5.30;99.90
49777;DHT22;35673;51.482;7.436;2022-12-07T03:10:54;5.30;99.90
49777;DHT22;35673;51.482;7.436;2022-12-07T03:15:51;5.20;99.90
49777;DHT22;35673;51.482;7.436;2022-12-07T03:18:20;5.20;99.90
49777;DHT22;35673;51.482;7.436;2022-12-07T03:20:47;5.20;99.90
49777;DHT22;35673;51.482;7.436;2022-12-07T03:23:13;5.10;99.90
49777;DHT22;35673;51.482;7.436;2022-12-07T03:25:44;5.10;99.90
49777;DHT22;35673;51.482;7.436;2022-12-07T03:28:12;5.10;99.90
49777;DHT22;35673;51.482;7.436;2022-12-07T03:30:44;5.00;99.90
49777;DHT22;35673;51.482;7.436;2022-12-07T03:33:11;5.00;99.90
49777;DHT22;35673;51.482;7.436;2022-12-07T03:35:47;5.00;99.90
49777;DHT22;35673;51.482;7.436;2022-12-07T03:38:19;4.90;99.90
49777;DHT22;35673;51.482;7.436;2022-12-07T03:43:11;4.80;99.90
49777;DHT22;35673;51.482;7.436;2022-12-07T03:45:41;4.80;99.90
49777;DHT22;35673;51.482;7.436;2022-12-07T03:48:08;4.80;99.90
49777;DHT22;35673;51.482;7.436;2022-12-07T03:53:15;4.80;99.90
49777;DHT22;35673;51.482;7.436;2022-12-07T03:55:42;4.80;99.90
49777;DHT22;35673;51.482;7.436;2022-12-07T03:58:11;4.80;99.90
49777;DHT22;35673;51.482;7.436;2022-12-07T04:00:37;4.80;99.90
49777;DHT22;35673;51.482;7.436;2022-12-07T04:03:02;4.80;99.90
49777;DHT22;35673;51.482;7.436;2022-12-07T04:05:28;4.80;99.90
49777;DHT22;35673;51.482;7.436;2022-12-07T04:07:54;4.80;99.90
49777;DHT22;35673;51.482;7.436;2022-12-07T04:10:19;4.80;99.90
49777;DHT22;35673;51.482;7.436;2022-12-07T04:12:45;4.70;99.90
49777;DHT22;35673;51.482;7.436;2022-12-07T04:15:11;4.70;99.90
49777;DHT22;35673;51.482;7.436;2022-12-07T04:17:37;4.60;99.90
49777;DHT22;35673;51.482;7.436;2022-12-07T04:20:03;4.60;99.90
49777;DHT22;35673;51.482;7.436;2022-12-07T04:22:29;4.60;99.90
49777;DHT22;35673;51.482;7.436;2022-12-07T04:24:55;4.60;99.90
49777;DHT22;35673;51.482;7.436;2022-12-07T04:27:20;4.60;99.90
49777;DHT22;35673;51.482;7.436;2022-12-07T04:29:46;4.60;99.90
49777;DHT22;35673;51.482;7.436;2022-12-07T04:32:11;4.60;99.90
49777;DHT22;35673;51.482;7.436;2022-12-07T04:34:37;4.60;99.90
49777;DHT22;35673;51.482;7.436;2022-12-07T04:37:02;4.60;99.90
49777;DHT22;35673;51.482;7.436;2022-12-07T04:39:29;4.50;99.90
49777;DHT22;35673;51.482;7.436;2022-12-07T04:41:55;4.60;99.90
49777;DHT22;35673;51.482;7.436;2022-12-07T04:44:20;4.50;99.90
49777;DHT22;35673;51.482;7.436;2022-12-07T04:46:46;4.50;99.90
49777;DHT22;35673;51.482;7.436;2022-12-07T04:49:12;4.60;99.90
49777;DHT22;35673;51.482;7.436;2022-12-07T04:51:38;4.60;99.90
49777;DHT22;35673;51.482;7.436;2022-12-07T04:54:03;4.60;99.90
49777;DHT22;35673;51.482;7.436;2022-12-07T04:56:29;4.60;99.90
49777;DHT22;35673;51.482;7.436;2022-12-07T04:58:55;4.60;99.90
49777;DHT22;35673;51.482;7.436;2022-12-07T05:01:21;4.60;99.90
49777;DHT22;35673;51.482;7.436;2022-12-07T05:03:47;4.60;99.90
49777;DHT22;35673;51.482;7.436;2022-12-07T05:06:13;4.60;99.90
49777;DHT22;35673;51.482;7.436;2022-12-07T05:08:39;4.60;99.90
49777;DHT22;35673;51.482;7.436;2022-12-07T05:11:04;4.60;99.90
49777;DHT22;35673;51.482;7.436;2022-12-07T05:13:31;4.60;99.90
49777;DHT22;35673;51.482;7.436;2022-12-07T05:15:56;4.60;99.90
49777;DHT22;35673;51.482;7.436;2022-12-07T05:18:22;4.60;99.90
49777;DHT22;35673;51.482;7.436;2022-12-07T05:20:48;4.60;99.90
49777;DHT22;35673;51.482;7.436;2022-12-07T05:23:14;4.60;99.90
49777;DHT22;35673;51.482;7.436;2022-12-07T05:25:39;4.60;99.90
49777;DHT22;35673;51.482;7.436;2022-12-07T05:28:05;4.70;99.90
49777;DHT22;35673;51.482;7.436;2022-12-07T05:30:31;4.60;99.90
49777;DHT22;35673;51.482;7.436;2022-12-07T05:32:57;4.60;99.90
49777;DHT22;35673;51.482;7.436;2022-12-07T05:35:22;4.60;99.90
49777;DHT22;35673;51.482;7.436;2022-12-07T05:37:48;4.60;99.90
49777;DHT22;35673;51.482;7.436;2022-12-07T05:40:14;4.60;99.90
49777;DHT22;35673;51.482;7.436;2022-12-07T05:42:40;4.60;99.90
49777;DHT22;35673;51.482;7.436;2022-12-07T05:45:06;4.50;99.90
49777;DHT22;35673;51.482;7.436;2022-12-07T05:47:31;4.50;99.90
49777;DHT22;35673;51.482;7.436;2022-12-07T05:49:57;4.50;99.90
49777;DHT22;35673;51.482;7.436;2022-12-07T05:52:22;4.50;99.90
49777;DHT22;35673;51.482;7.436;2022-12-07T05:54:48;4.50;99.90
49777;DHT22;35673;51.482;7.436;2022-12-07T05:57:13;4.50;99.90
49777;DHT22;35673;51.482;7.436;2022-12-07T05:59:39;4.50;99.90
49777;DHT22;35673;51.482;7.436;2022-12-07T06:02:06;4.50;99.90
49777;DHT22;35673;51.482;7.436;2022-12-07T06:04:33;4.50;99.90
49777;DHT22;35673;51.482;7.436;2022-12-07T06:06:59;4.50;99.90
49777;DHT22;35673;51.482;7.436;2022-12-07T06:09:25;4.50;99.90
49777;DHT22;35673;51.482;7.436;2022-12-07T06:11:51;4.50;99.90
49777;DHT22;35673;51.482;7.436;2022-12-07T06:14:35;4.50;99.90
49777;DHT22;35673;51.482;7.436;2022-12-07T06:17:01;4.50;99.90
49777;DHT22;35673;51.482;7.436;2022-12-07T06:19:26;4.50;99.90
49777;DHT22;35673;51.482;7.436;2022-12-07T06:21:52;4.60;99.90
49777;DHT22;35673;51.482;7.436;2022-12-07T06:24:18;4.60;99.90
49777;DHT22;35673;51.482;7.436;2022-12-07T06:26:44;4.60;99.90
49777;DHT22;35673;51.482;7.436;2022-12-07T06:29:10;4.60;99.90
49777;DHT22;35673;51.482;7.436;2022-12-07T06:31:36;4.60;99.90
49777;DHT22;35673;51.482;7.436;2022-12-07T06:34:03;4.60;99.90
49777;DHT22;35673;51.482;7.436;2022-12-07T06:36:29;4.60;99.90
49777;DHT22;35673;51.482;7.436;2022-12-07T06:38:54;4.50;99.90
49777;DHT22;35673;51.482;7.436;2022-12-07T06:41:21;4.50;99.90
49777;DHT22;35673;51.482;7.436;2022-12-07T06:43:47;4.60;99.90
49777;DHT22;35673;51.482;7.436;2022-12-07T06:46:13;4.60;99.90
49777;DHT22;35673;51.482;7.436;2022-12-07T06:48:39;4.50;99.90
49777;DHT22;35673;51.482;7.436;2022-12-07T06:51:05;4.50;99.90
49777;DHT22;35673;51.482;7.436;2022-12-07T06:53:30;4.50;99.90
49777;DHT22;35673;51.482;7.436;2022-12-07T06:55:56;4.50;99.90
49777;DHT22;35673;51.482;7.436;2022-12-07T06:58:21;4.50;99.90
49777;DHT22;35673;51.482;7.436;2022-12-07T07:00:47;4.50;99.90
49777;DHT22;35673;51.482;7.436;2022-12-07T07:03:13;4.50;99.90
49777;DHT22;35673;51.482;7.436;2022-12-07T07:05:38;4.50;99.90
49777;DHT22;35673;51.482;7.436;2022-12-07T07:11:07;4.50;99.90
49777;DHT22;35673;51.482;7.436;2022-12-07T07:13:33;4.40;99.90
49777;DHT22;35673;51.482;7.436;2022-12-07T07:15:59;4.40;99.90
49777;DHT22;35673;51.482;7.436;2022-12-07T07:18:24;4.40;99.90
49777;DHT22;35673;51.482;7.436;2022-12-07T07:20:50;4.40;99.90
49777;DHT22;35673;51.482;7.436;2022-12-07T07:23:16;4.40;99.90
49777;DHT22;35673;51.482;7.436;2022-12-07T07:25:42;4.40;99.90
49777;DHT22;35673;51.482;7.436;2022-12-07T07:28:07;4.40;99.90
49777;DHT22;35673;51.482;7.436;2022-12-07T07:30:33;4.40;99.90
49777;DHT22;35673;51.482;7.436;2022-12-07T07:32:58;4.40;99.90
49777;DHT22;35673;51.482;7.436;2022-12-07T07:35:25;4.40;99.90
49777;DHT22;35673;51.482;7.436;2022-12-07T07:37:51;4.40;99.90
49777;DHT22;35673;51.482;7.436;2022-12-07T07:40:16;4.30;99.90
49777;DHT22;35673;51.482;7.436;2022-12-07T07:42:42;4.30;99.90
49777;DHT22;35673;51.482;7.436;2022-12-07T07:45:07;4.30;99.90
49777;DHT22;35673;51.482;7.436;2022-12-07T07:47:33;4.20;99.90
49777;DHT22;35673;51.482;7.436;2022-12-07T07:49:58;4.20;99.90
49777;DHT22;35673;51.482;7.436;2022-12-07T07:52:24;4.20;99.90
49777;DHT22;35673;51.482;7.436;2022-12-07T07:54:49;4.20;99.90
49777;DHT22;35673;51.482;7.436;2022-12-07T07:57:16;4.20;99.90
49777;DHT22;35673;51.482;7.436;2022-12-07T07:59:41;4.20;99.90
49777;DHT22;35673;51.482;7.436;2022-12-07T08:02:09;4.20;99.90
49777;DHT22;35673;51.482;7.436;2022-12-07T08:04:35;4.20;99.90
49777;DHT22;35673;51.482;7.436;2022-12-07T08:07:01;4.20;99.90
49777;DHT22;35673;51.482;7.436;2022-12-07T08:09:26;4.20;99.90
49777;DHT22;35673;51.482;7.436;2022-12-07T08:11:52;4.20;99.90
49777;DHT22;35673;51.482;7.436;2022-12-07T08:14:17;4.20;99.90
49777;DHT22;35673;51.482;7.436;2022-12-07T08:16:43;4.20;99.90
49777;DHT22;35673;51.482;7.436;2022-12-07T08:19:08;4.20;99.90
49777;DHT22;35673;51.482;7.436;2022-12-07T08:21:34;4.20;99.90
49777;DHT22;35673;51.482;7.436;2022-12-07T08:23:59;4.20;99.90
49777;DHT22;35673;51.482;7.436;2022-12-07T08:26:24;4.30;99.90
49777;DHT22;35673;51.482;7.436;2022-12-07T08:28:50;4.40;99.90
49777;DHT22;35673;51.482;7.436;2022-12-07T08:31:16;4.50;99.90
49777;DHT22;35673;51.482;7.436;2022-12-07T08:33:44;4.70;99.90
49777;DHT22;35673;51.482;7.436;2022-12-07T08:36:10;4.70;99.90
49777;DHT22;35673;51.482;7.436;2022-12-07T08:38:37;4.70;99.90
49777;DHT22;35673;51.482;7.436;2022-12-07T08:41:03;4.70;99.90
49777;DHT22;35673;51.482;7.436;2022-12-07T08:43:28;4.70;99.90
49777;DHT22;35673;51.482;7.436;2022-12-07T08:46:05;4.70;99.90
49777;DHT22;35673;51.482;7.436;2022-12-07T08:48:31;4.70;99.90
49777;DHT22;35673;51.482;7.436;2022-12-07T08:50:57;4.80;99.90
49777;DHT22;35673;51.482;7.436;2022-12-07T08:53:23;4.90;99.90
49777;DHT22;35673;51.482;7.436;2022-12-07T08:55:48;5.00;99.90
49777;DHT22;35673;51.482;7.436;2022-12-07T08:58:14;5.00;99.90
49777;DHT22;35673;51.482;7.436;2022-12-07T09:00:40;5.00;99.90
49777;DHT22;35673;51.482;7.436;2022-12-07T09:03:05;5.10;99.90
49777;DHT22;35673;51.482;7.436;2022-12-07T09:05:31;5.10;99.90
49777;DHT22;35673;51.482;7.436;2022-12-07T09:07:58;5.10;99.90
49777;DHT22;35673;51.482;7.436;2022-12-07T09:10:25;5.10;99.90
49777;DHT22;35673;51.482;7.436;2022-12-07T09:12:51;5.00;99.90
49777;DHT22;35673;51.482;7.436;2022-12-07T09:15:17;5.00;99.90
49777;DHT22;35673;51.482;7.436;2022-12-07T09:17:42;5.00;99.90
49777;DHT22;35673;51.482;7.436;2022-12-07T09:20:08;5.00;99.90
49777;DHT22;35673;51.482;7.436;2022-12-07T09:22:33;5.00;99.90
49777;DHT22;35673;51.482;7.436;2022-12-07T09:24:59;5.10;99.90
49777;DHT22;35673;51.482;7.436;2022-12-07T09:27:25;5.20;99.90
49777;DHT22;35673;51.482;7.436;2022-12-07T09:29:51;5.30;99.90
49777;DHT22;35673;51.482;7.436;2022-12-07T09:32:16;5.30;99.90
49777;DHT22;35673;51.482;7.436;2022-12-07T09:34:41;5.30;99.90
49777;DHT22;35673;51.482;7.436;2022-12-07T09:37:07;5.40;99.90
49777;DHT22;35673;51.482;7.436;2022-12-07T09:39:33;5.40;99.90
49777;DHT22;35673;51.482;7.436;2022-12-07T09:41:59;5.40;99.90
49777;DHT22;35673;51.482;7.436;2022-12-07T09:44:25;5.50;99.90
49777;DHT22;35673;51.482;7.436;2022-12-07T09:46:52;5.40;99.90
49777;DHT22;35673;51.482;7.436;2022-12-07T09:49:21;5.40;99.90
49777;DHT22;35673;51.482;7.436;2022-12-07T09:51:59;5.50;99.90
49777;DHT22;35673;51.482;7.436;2022-12-07T09:54:25;5.50;99.90
49777;DHT22;35673;51.482;7.436;2022-12-07T09:56:50;5.60;99.90
49777;DHT22;35673;51.482;7.436;2022-12-07T09:59:17;5.60;99.90
49777;DHT22;35673;51.482;7.436;2022-12-07T10:01:43;5.60;99.90
49777;DHT22;35673;51.482;7.436;2022-12-07T10:06:41;5.60;99.90
49777;DHT22;35673;51.482;7.436;2022-12-07T10:09:13;5.50;99.90
49777;DHT22;35673;51.482;7.436;2022-12-07T10:14:24;5.40;99.90
49777;DHT22;35673;51.482;7.436;2022-12-07T10:16:52;5.50;99.90
49777;DHT22;35673;51.482;7.436;2022-12-07T10:22:03;5.60;99.90
49777;DHT22;35673;51.482;7.436;2022-12-07T10:24:28;5.60;99.90
49777;DHT22;35673;51.482;7.436;2022-12-07T10:26:54;5.70;99.90
49777;DHT22;35673;51.482;7.436;2022-12-07T10:29:33;6.00;99.90
49777;DHT22;35673;51.482;7.436;2022-12-07T10:32:01;6.20;99.90
49777;DHT22;35673;51.482;7.436;2022-12-07T10:34:28;6.50;99.90
49777;DHT22;35673;51.482;7.436;2022-12-07T10:37:06;6.60;99.90
49777;DHT22;35673;51.482;7.436;2022-12-07T10:39:31;7.10;99.90
49777;DHT22;35673;51.482;7.436;2022-12-07T10:42:05;7.60;99.90
49777;DHT22;35673;51.482;7.436;2022-12-07T10:44:32;7.20;99.90
49777;DHT22;35673;51.482;7.436;2022-12-07T10:49:49;6.60;99.90
49777;DHT22;35673;51.482;7.436;2022-12-07T11:15:10;6.30;99.90
49777;DHT22;35673;51.482;7.436;2022-12-07T11:17:49;6.30;99.90
49777;DHT22;35673;51.482;7.436;2022-12-07T11:22:51;6.50;99.90
49777;DHT22;35673;51.482;7.436;2022-12-07T11:32:47;6.60;99.90
49777;DHT22;35673;51.482;7.436;2022-12-07T11:35:22;6.70;99.90
49777;DHT22;35673;51.482;7.436;2022-12-07T11:37:51;6.80;99.90
49777;DHT22;35673;51.482;7.436;2022-12-07T11:40:24;6.90;99.90
49777;DHT22;35673;51.482;7.436;2022-12-07T11:42:58;6.80;99.90
49777;DHT22;35673;51.482;7.436;2022-12-07T11:45:31;6.80;99.90
49777;DHT22;35673;51.482;7.436;2022-12-07T11:47:59;6.80;99.90
49777;DHT22;35673;51.482;7.436;2022-12-07T12:00:42;6.80;99.90
49777;DHT22;35673;51.482;7.436;2022-12-07T12:03:12;6.70;99.90
49777;DHT22;35673;51.482;7.436;2022-12-07T12:05:41;6.70;99.90
49777;DHT22;35673;51.482;7.436;2022-12-07T12:15:34;6.70;99.90
49777;DHT22;35673;51.482;7.436;2022-12-07T12:23:12;6.80;99.90
49777;DHT22;35673;51.482;7.436;2022-12-07T12:25:40;6.90;99.90
49777;DHT22;35673;51.482;7.436;2022-12-07T12:28:16;6.90;99.90
49777;DHT22;35673;51.482;7.436;2022-12-07T12:30:44;6.80;99.90
49777;DHT22;35673;51.482;7.436;2022-12-07T12:41:50;6.80;99.90
49777;DHT22;35673;51.482;7.436;2022-12-07T12:46:46;6.90;99.90
49777;DHT22;35673;51.482;7.436;2022-12-07T12:51:41;6.90;99.90
49777;DHT22;35673;51.482;7.436;2022-12-07T12:54:15;6.80;99.90
49777;DHT22;35673;51.482;7.436;2022-12-07T13:03:04;6.60;99.90
49777;DHT22;35673;51.482;7.436;2022-12-07T13:05:25;6.70;99.90
49777;DHT22;35673;51.482;7.436;2022-12-07T13:07:54;6.60;99.90
49777;DHT22;35673;51.482;7.436;2022-12-07T13:15:37;6.80;99.90
49777;DHT22;35673;51.482;7.436;2022-12-07T13:20:48;6.70;99.90
49777;DHT22;35673;51.482;7.436;2022-12-07T13:23:16;6.70;99.90
49777;DHT22;35673;51.482;7.436;2022-12-07T13:25:51;6.70;99.90
49777;DHT22;35673;51.482;7.436;2022-12-07T13:28:17;6.70;99.90
49777;DHT22;35673;51.482;7.436;2022-12-07T13:33:44;6.70;99.90
49777;DHT22;35673;51.482;7.436;2022-12-07T13:36:14;6.70;99.90
49777;DHT22;35673;51.482;7.436;2022-12-07T13:38:47;6.60;99.90
49777;DHT22;35673;51.482;7.436;2022-12-07T13:41:14;6.50;99.90
49777;DHT22;35673;51.482;7.436;2022-12-07T13:46:25;6.50;99.90
49777;DHT22;35673;51.482;7.436;2022-12-07T13:48:52;6.50;99.90
49777;DHT22;35673;51.482;7.436;2022-12-07T13:51:24;6.50;99.90
49777;DHT22;35673;51.482;7.436;2022-12-07T13:53:54;6.60;99.90
49777;DHT22;35673;51.482;7.436;2022-12-07T13:56:21;6.70;99.90
49777;DHT22;35673;51.482;7.436;2022-12-07T13:58:47;6.80;99.90
49777;DHT22;35673;51.482;7.436;2022-12-07T14:01:12;6.80;99.90
49777;DHT22;35673;51.482;7.436;2022-12-07T14:03:38;6.70;99.90
49777;DHT22;35673;51.482;7.436;2022-12-07T14:08:33;6.60;99.90
49777;DHT22;35673;51.482;7.436;2022-12-07T14:10:58;6.50;99.90
49777;DHT22;35673;51.482;7.436;2022-12-07T14:13:31;6.50;99.90
49777;DHT22;35673;51.482;7.436;2022-12-07T14:15:59;6.50;99.90
49777;DHT22;35673;51.482;7.436;2022-12-07T14:18:26;6.40;99.90
49777;DHT22;35673;51.482;7.436;2022-12-07T14:21:02;6.40;99.90
49777;DHT22;35673;51.482;7.436;2022-12-07T14:23:27;6.30;99.90
49777;DHT22;35673;51.482;7.436;2022-12-07T14:25:53;6.30;99.90
49777;DHT22;35673;51.482;7.436;2022-12-07T14:28:29;6.30;99.90
49777;DHT22;35673;51.482;7.436;2022-12-07T14:30:55;6.30;99.90
49777;DHT22;35673;51.482;7.436;2022-12-07T14:33:20;6.20;99.90
49777;DHT22;35673;51.482;7.436;2022-12-07T14:35:46;6.00;99.90
49777;DHT22;35673;51.482;7.436;2022-12-07T14:38:11;5.90;99.90
49777;DHT22;35673;51.482;7.436;2022-12-07T14:40:37;5.80;99.90
49777;DHT22;35673;51.482;7.436;2022-12-07T14:43:04;5.80;99.90
49777;DHT22;35673;51.482;7.436;2022-12-07T14:45:31;5.80;99.90
49777;DHT22;35673;51.482;7.436;2022-12-07T14:47:57;5.80;99.90
49777;DHT22;35673;51.482;7.436;2022-12-07T14:50:22;5.80;99.90
49777;DHT22;35673;51.482;7.436;2022-12-07T14:52:49;5.70;99.90
49777;DHT22;35673;51.482;7.436;2022-12-07T14:55:20;5.60;99.90
49777;DHT22;35673;51.482;7.436;2022-12-07T14:57:47;5.60;99.90
49777;DHT22;35673;51.482;7.436;2022-12-07T15:00:13;5.60;99.90
49777;DHT22;35673;51.482;7.436;2022-12-07T15:02:39;5.60;99.90
49777;DHT22;35673;51.482;7.436;2022-12-07T15:05:05;5.40;99.90
49777;DHT22;35673;51.482;7.436;2022-12-07T15:07:30;5.30;99.90
49777;DHT22;35673;51.482;7.436;2022-12-07T15:09:56;5.20;99.90
49777;DHT22;35673;51.482;7.436;2022-12-07T15:12:21;5.10;99.90
49777;DHT22;35673;51.482;7.436;2022-12-07T15:14:47;5.00;99.90
49777;DHT22;35673;51.482;7.436;2022-12-07T15:17:12;5.00;99.90
49777;DHT22;35673;51.482;7.436;2022-12-07T15:19:39;5.00;99.90
49777;DHT22;35673;51.482;7.436;2022-12-07T15:22:04;4.90;99.90
49777;DHT22;35673;51.482;7.436;2022-12-07T15:24:30;4.90;99.90
49777;DHT22;35673;51.482;7.436;2022-12-07T15:26:55;4.90;99.90
49777;DHT22;35673;51.482;7.436;2022-12-07T15:29:21;4.90;99.90
49777;DHT22;35673;51.482;7.436;2022-12-07T15:31:47;4.80;99.90
49777;DHT22;35673;51.482;7.436;2022-12-07T15:34:13;4.80;99.90
49777;DHT22;35673;51.482;7.436;2022-12-07T15:36:38;4.70;99.90
49777;DHT22;35673;51.482;7.436;2022-12-07T15:39:04;4.70;99.90
49777;DHT22;35673;51.482;7.436;2022-12-07T15:41:29;4.70;99.90
49777;DHT22;35673;51.482;7.436;2022-12-07T15:43:55;4.70;99.90
49777;DHT22;35673;51.482;7.436;2022-12-07T15:46:40;4.60;99.90
49777;DHT22;35673;51.482;7.436;2022-12-07T15:49:07;4.50;99.90
49777;DHT22;35673;51.482;7.436;2022-12-07T15:51:34;4.50;99.90
49777;DHT22;35673;51.482;7.436;2022-12-07T15:53:59;4.40;99.90
49777;DHT22;35673;51.482;7.436;2022-12-07T15:56:25;4.40;99.90
49777;DHT22;35673;51.482;7.436;2022-12-07T15:58:50;4.40;99.90
49777;DHT22;35673;51.482;7.436;2022-12-07T16:01:16;4.40;99.90
49777;DHT22;35673;51.482;7.436;2022-12-07T16:03:42;4.40;99.90
49777;DHT22;35673;51.482;7.436;2022-12-07T16:06:08;4.50;99.90
49777;DHT22;35673;51.482;7.436;2022-12-07T16:08:34;4.50;99.90
49777;DHT22;35673;51.482;7.436;2022-12-07T16:10:59;4.40;99.90
49777;DHT22;35673;51.482;7.436;2022-12-07T16:13:25;4.40;99.90
49777;DHT22;35673;51.482;7.436;2022-12-07T16:15:50;4.40;99.90
49777;DHT22;35673;51.482;7.436;2022-12-07T16:18:16;4.50;99.90
49777;DHT22;35673;51.482;7.436;2022-12-07T16:20:41;4.50;99.90
49777;DHT22;35673;51.482;7.436;2022-12-07T16:23:07;4.50;99.90
49777;DHT22;35673;51.482;7.436;2022-12-07T16:25:33;4.50;99.90
49777;DHT22;35673;51.482;7.436;2022-12-07T16:27:58;4.50;99.90
49777;DHT22;35673;51.482;7.436;2022-12-07T16:30:24;4.50;99.90
49777;DHT22;35673;51.482;7.436;2022-12-07T16:32:50;4.50;99.90
49777;DHT22;35673;51.482;7.436;2022-12-07T16:35:16;4.50;99.90
49777;DHT22;35673;51.482;7.436;2022-12-07T16:37:42;4.50;99.90
49777;DHT22;35673;51.482;7.436;2022-12-07T16:40:07;4.50;99.90
49777;DHT22;35673;51.482;7.436;2022-12-07T16:42:33;4.50;99.90
49777;DHT22;35673;51.482;7.436;2022-12-07T16:45:00;4.50;99.90
49777;DHT22;35673;51.482;7.436;2022-12-07T16:47:25;4.50;99.90
49777;DHT22;35673;51.482;7.436;2022-12-07T16:49:50;4.50;99.90
49777;DHT22;35673;51.482;7.436;2022-12-07T16:52:17;4.50;99.90
49777;DHT22;35673;51.482;7.436;2022-12-07T16:54:43;4.60;99.90
49777;DHT22;35673;51.482;7.436;2022-12-07T16:57:08;4.60;99.90
49777;DHT22;35673;51.482;7.436;2022-12-07T16:59:34;4.60;99.90
49777;DHT22;35673;51.482;7.436;2022-12-07T17:01:59;4.60;99.90
49777;DHT22;35673;51.482;7.436;2022-12-07T17:04:24;4.60;99.90
49777;DHT22;35673;51.482;7.436;2022-12-07T17:06:50;4.70;99.90
49777;DHT22;35673;51.482;7.436;2022-12-07T17:09:15;4.60;99.90
49777;DHT22;35673;51.482;7.436;2022-12-07T17:11:42;4.60;99.90
49777;DHT22;35673;51.482;7.436;2022-12-07T17:14:08;4.70;99.90
49777;DHT22;35673;51.482;7.436;2022-12-07T17:16:53;4.70;99.90
49777;DHT22;35673;51.482;7.436;2022-12-07T17:19:18;4.70;99.90
49777;DHT22;35673;51.482;7.436;2022-12-07T17:21:44;4.70;99.90
49777;DHT22;35673;51.482;7.436;2022-12-07T17:24:10;4.70;99.90
49777;DHT22;35673;51.482;7.436;2022-12-07T17:26:36;4.70;99.90
49777;DHT22;35673;51.482;7.436;2022-12-07T17:29:02;4.80;99.90
49777;DHT22;35673;51.482;7.436;2022-12-07T17:31:28;4.80;99.90
49777;DHT22;35673;51.482;7.436;2022-12-07T17:33:53;4.80;99.90
49777;DHT22;35673;51.482;7.436;2022-12-07T17:36:24;4.80;99.90
49777;DHT22;35673;51.482;7.436;2022-12-07T17:38:50;4.80;99.90
49777;DHT22;35673;51.482;7.436;2022-12-07T17:41:16;4.80;99.90
49777;DHT22;35673;51.482;7.436;2022-12-07T17:44:21;4.80;99.90
49777;DHT22;35673;51.482;7.436;2022-12-07T17:46:47;4.90;99.90
49777;DHT22;35673;51.482;7.436;2022-12-07T17:49:14;4.80;99.90
49777;DHT22;35673;51.482;7.436;2022-12-07T17:51:39;4.90;99.90
49777;DHT22;35673;51.482;7.436;2022-12-07T17:54:23;4.80;99.90
49777;DHT22;35673;51.482;7.436;2022-12-07T17:56:49;4.90;99.90
49777;DHT22;35673;51.482;7.436;2022-12-07T17:59:15;4.80;99.90
49777;DHT22;35673;51.482;7.436;2022-12-07T18:01:40;4.80;99.90
49777;DHT22;35673;51.482;7.436;2022-12-07T18:04:07;4.80;99.90